sensor_id;sensor_type;location;lat;lon;timestamp;P1;durP1;ratioP1;P2;durP2;ratioP2
3881;SDS011;1956;53.482;10.238;2022-10-31T00:04:46;28.63;;;18.87;;
3881;SDS011;1956;53.482;10.238;2022-10-31T00:09:46;33.93;;;18.80;;
3881;SDS011;1956;53.482;10.238;2022-10-31T00:14:46;33.60;;;18.30;;
3881;SDS011;1956;53.482;10.238;2022-10-31T00:19:47;34.93;;;18.20;;
3881;SDS011;1956;53.482;10.238;2022-10-31T00:24:47;43.80;;;18.43;;
3881;SDS011;1956;53.482;10.238;2022-10-31T00:29:47;37.63;;;19.73;;
3881;SDS011;1956;53.482;10.238;2022-10-31T00:34:48;29.93;;;16.93;;
3881;SDS011;1956;53.482;10.238;2022-10-31T00:39:48;25.90;;;18.40;;
3881;SDS011;1956;53.482;10.238;2022-10-31T00:44:49;25.67;;;17.33;;
3881;SDS011;1956;53.482;10.238;2022-10-31T00:49:49;33.27;;;19.23;;
3881;SDS011;1956;53.482;10.238;2022-10-31T00:54:50;30.47;;;17.90;;
3881;SDS011;1956;53.482;10.238;2022-10-31T00:59:50;24.97;;;17.97;;
3881;SDS011;1956;53.482;10.238;2022-10-31T01:04:50;24.93;;;17.00;;
3881;SDS011;1956;53.482;10.238;2022-10-31T01:09:51;27.40;;;18.37;;
3881;SDS011;1956;53.482;10.238;2022-10-31T01:14:51;26.67;;;16.93;;
3881;SDS011;1956;53.482;10.238;2022-10-31T01:19:52;32.47;;;16.20;;
3881;SDS011;1956;53.482;10.238;2022-10-31T01:24:52;30.83;;;16.73;;
3881;SDS011;1956;53.482;10.238;2022-10-31T01:29:52;23.77;;;16.67;;
3881;SDS011;1956;53.482;10.238;2022-10-31T01:34:53;30.50;;;17.80;;
3881;SDS011;1956;53.482;10.238;2022-10-31T01:39:53;23.00;;;15.57;;
3881;SDS011;1956;53.482;10.238;2022-10-31T01:44:58;30.07;;;15.77;;
3881;SDS011;1956;53.482;10.238;2022-10-31T01:50:00;19.00;;;15.50;;
3881;SDS011;1956;53.482;10.238;2022-10-31T01:55:05;25.60;;;16.47;;
3881;SDS011;1956;53.482;10.238;2022-10-31T02:00:11;22.20;;;14.73;;
3881;SDS011;1956;53.482;10.238;2022-10-31T02:05:14;32.43;;;16.90;;
3881;SDS011;1956;53.482;10.238;2022-10-31T02:10:17;41.60;;;19.47;;
3881;SDS011;1956;53.482;10.238;2022-10-31T02:15:18;29.97;;;16.57;;
3881;SDS011;1956;53.482;10.238;2022-10-31T02:20:19;25.33;;;18.00;;
3881;SDS011;1956;53.482;10.238;2022-10-31T02:25:36;25.63;;;16.77;;
3881;SDS011;1956;53.482;10.238;2022-10-31T02:48:20;33.93;;;19.10;;
3881;SDS011;1956;53.482;10.238;2022-10-31T02:53:24;39.50;;;19.53;;
3881;SDS011;1956;53.482;10.238;2022-10-31T02:58:25;32.93;;;20.47;;
3881;SDS011;1956;53.482;10.238;2022-10-31T03:03:33;34.93;;;19.77;;
3881;SDS011;1956;53.482;10.238;2022-10-31T03:08:59;32.50;;;20.40;;
3881;SDS011;1956;53.482;10.238;2022-10-31T03:14:20;34.90;;;20.90;;
3881;SDS011;1956;53.482;10.238;2022-10-31T03:19:26;39.30;;;21.40;;
3881;SDS011;1956;53.482;10.238;2022-10-31T03:24:33;50.00;;;26.00;;
3881;SDS011;1956;53.482;10.238;2022-10-31T03:29:36;33.27;;;22.10;;
3881;SDS011;1956;53.482;10.238;2022-10-31T03:34:37;39.40;;;24.03;;
3881;SDS011;1956;53.482;10.238;2022-10-31T03:39:39;43.57;;;25.60;;
3881;SDS011;1956;53.482;10.238;2022-10-31T03:44:42;47.63;;;26.90;;
3881;SDS011;1956;53.482;10.238;2022-10-31T03:49:47;53.33;;;29.20;;
3881;SDS011;1956;53.482;10.238;2022-10-31T03:54:58;102.90;;;33.10;;
3881;SDS011;1956;53.482;10.238;2022-10-31T04:00:03;97.73;;;33.80;;
3881;SDS011;1956;53.482;10.238;2022-10-31T04:05:07;117.43;;;38.03;;
3881;SDS011;1956;53.482;10.238;2022-10-31T04:10:09;167.23;;;39.00;;
3881;SDS011;1956;53.482;10.238;2022-10-31T04:15:13;101.73;;;35.77;;
3881;SDS011;1956;53.482;10.238;2022-10-31T04:20:15;66.60;;;34.40;;
3881;SDS011;1956;53.482;10.238;2022-10-31T04:25:16;71.77;;;34.60;;
3881;SDS011;1956;53.482;10.238;2022-10-31T04:30:16;126.83;;;37.17;;
3881;SDS011;1956;53.482;10.238;2022-10-31T04:35:17;63.33;;;31.47;;
3881;SDS011;1956;53.482;10.238;2022-10-31T04:40:17;55.93;;;27.97;;
3881;SDS011;1956;53.482;10.238;2022-10-31T04:45:17;58.37;;;27.77;;
3881;SDS011;1956;53.482;10.238;2022-10-31T04:50:18;49.67;;;26.80;;
3881;SDS011;1956;53.482;10.238;2022-10-31T04:55:18;49.70;;;30.00;;
3881;SDS011;1956;53.482;10.238;2022-10-31T05:00:19;104.53;;;36.70;;
3881;SDS011;1956;53.482;10.238;2022-10-31T05:05:22;168.43;;;44.40;;
3881;SDS011;1956;53.482;10.238;2022-10-31T05:10:25;118.70;;;45.60;;
3881;SDS011;1956;53.482;10.238;2022-10-31T05:15:27;126.20;;;46.77;;
3881;SDS011;1956;53.482;10.238;2022-10-31T05:20:29;187.27;;;53.07;;
3881;SDS011;1956;53.482;10.238;2022-10-31T05:25:30;174.90;;;51.33;;
3881;SDS011;1956;53.482;10.238;2022-10-31T05:30:31;191.97;;;53.80;;
3881;SDS011;1956;53.482;10.238;2022-10-31T05:35:32;186.70;;;52.13;;
3881;SDS011;1956;53.482;10.238;2022-10-31T05:40:33;121.43;;;50.67;;
3881;SDS011;1956;53.482;10.238;2022-10-31T05:45:33;137.73;;;49.47;;
3881;SDS011;1956;53.482;10.238;2022-10-31T05:50:33;234.97;;;55.73;;
3881;SDS011;1956;53.482;10.238;2022-10-31T05:55:34;169.17;;;52.30;;
3881;SDS011;1956;53.482;10.238;2022-10-31T06:00:34;248.73;;;57.43;;
3881;SDS011;1956;53.482;10.238;2022-10-31T06:05:35;122.53;;;50.00;;
3881;SDS011;1956;53.482;10.238;2022-10-31T06:10:35;106.23;;;47.37;;
3881;SDS011;1956;53.482;10.238;2022-10-31T06:15:35;166.07;;;52.97;;
3881;SDS011;1956;53.482;10.238;2022-10-31T06:20:36;114.77;;;46.53;;
3881;SDS011;1956;53.482;10.238;2022-10-31T06:25:36;232.47;;;56.57;;
3881;SDS011;1956;53.482;10.238;2022-10-31T06:30:37;275.40;;;59.60;;
3881;SDS011;1956;53.482;10.238;2022-10-31T06:35:37;237.77;;;60.60;;
3881;SDS011;1956;53.482;10.238;2022-10-31T06:40:37;224.93;;;58.20;;
3881;SDS011;1956;53.482;10.238;2022-10-31T06:45:38;293.47;;;62.10;;
3881;SDS011;1956;53.482;10.238;2022-10-31T06:50:38;224.73;;;58.20;;
3881;SDS011;1956;53.482;10.238;2022-10-31T06:55:38;262.43;;;59.40;;
3881;SDS011;1956;53.482;10.238;2022-10-31T07:00:39;223.60;;;57.60;;
3881;SDS011;1956;53.482;10.238;2022-10-31T07:05:39;389.87;;;65.07;;
3881;SDS011;1956;53.482;10.238;2022-10-31T07:10:40;370.17;;;61.37;;
3881;SDS011;1956;53.482;10.238;2022-10-31T07:15:42;188.00;;;53.10;;
3881;SDS011;1956;53.482;10.238;2022-10-31T07:20:43;414.87;;;59.97;;
3881;SDS011;1956;53.482;10.238;2022-10-31T07:25:43;243.03;;;52.50;;
3881;SDS011;1956;53.482;10.238;2022-10-31T07:30:48;431.80;;;58.60;;
3881;SDS011;1956;53.482;10.238;2022-10-31T07:35:50;370.10;;;55.07;;
3881;SDS011;1956;53.482;10.238;2022-10-31T07:40:51;375.13;;;57.90;;
3881;SDS011;1956;53.482;10.238;2022-10-31T07:45:52;243.67;;;54.70;;
3881;SDS011;1956;53.482;10.238;2022-10-31T07:50:54;335.93;;;60.70;;
3881;SDS011;1956;53.482;10.238;2022-10-31T07:55:54;278.17;;;55.60;;
3881;SDS011;1956;53.482;10.238;2022-10-31T08:00:55;246.53;;;54.60;;
3881;SDS011;1956;53.482;10.238;2022-10-31T08:05:57;246.10;;;49.07;;
3881;SDS011;1956;53.482;10.238;2022-10-31T08:10:57;137.03;;;38.53;;
3881;SDS011;1956;53.482;10.238;2022-10-31T08:15:58;257.50;;;54.10;;
3881;SDS011;1956;53.482;10.238;2022-10-31T08:21:03;204.23;;;50.17;;
3881;SDS011;1956;53.482;10.238;2022-10-31T08:26:04;349.67;;;56.67;;
3881;SDS011;1956;53.482;10.238;2022-10-31T08:31:06;229.33;;;51.53;;
3881;SDS011;1956;53.482;10.238;2022-10-31T08:36:06;448.97;;;60.27;;
3881;SDS011;1956;53.482;10.238;2022-10-31T08:41:07;497.50;;;65.37;;
3881;SDS011;1956;53.482;10.238;2022-10-31T08:46:07;202.90;;;48.10;;
3881;SDS011;1956;53.482;10.238;2022-10-31T08:51:08;215.00;;;50.20;;
3881;SDS011;1956;53.482;10.238;2022-10-31T08:56:09;339.67;;;50.33;;
3881;SDS011;1956;53.482;10.238;2022-10-31T09:01:09;169.87;;;46.27;;
3881;SDS011;1956;53.482;10.238;2022-10-31T09:06:09;214.97;;;45.07;;
3881;SDS011;1956;53.482;10.238;2022-10-31T09:11:10;218.20;;;46.80;;
3881;SDS011;1956;53.482;10.238;2022-10-31T09:16:10;160.47;;;41.57;;
3881;SDS011;1956;53.482;10.238;2022-10-31T09:21:10;164.70;;;43.70;;
3881;SDS011;1956;53.482;10.238;2022-10-31T09:26:11;108.00;;;36.03;;
3881;SDS011;1956;53.482;10.238;2022-10-31T09:31:11;149.07;;;42.87;;
3881;SDS011;1956;53.482;10.238;2022-10-31T09:36:12;133.43;;;38.60;;
3881;SDS011;1956;53.482;10.238;2022-10-31T09:41:26;129.23;;;40.30;;
3881;SDS011;1956;53.482;10.238;2022-10-31T09:46:50;123.30;;;39.33;;
3881;SDS011;1956;53.482;10.238;2022-10-31T09:52:04;114.23;;;37.30;;
3881;SDS011;1956;53.482;10.238;2022-10-31T09:57:14;113.37;;;37.90;;
3881;SDS011;1956;53.482;10.238;2022-10-31T10:07:45;121.90;;;39.70;;
3881;SDS011;1956;53.482;10.238;2022-10-31T10:13:19;97.93;;;36.10;;
3881;SDS011;1956;53.482;10.238;2022-10-31T10:25:34;93.53;;;37.17;;
3881;SDS011;1956;53.482;10.238;2022-10-31T10:30:04;86.17;;;33.67;;
3881;SDS011;1956;53.482;10.238;2022-10-31T10:35:19;76.10;;;34.73;;
3881;SDS011;1956;53.482;10.238;2022-10-31T10:40:25;67.60;;;32.70;;
3881;SDS011;1956;53.482;10.238;2022-10-31T10:45:27;74.20;;;32.67;;
3881;SDS011;1956;53.482;10.238;2022-10-31T10:50:50;65.17;;;32.03;;
3881;SDS011;1956;53.482;10.238;2022-10-31T10:55:53;69.00;;;32.30;;
3881;SDS011;1956;53.482;10.238;2022-10-31T11:00:57;73.30;;;32.53;;
3881;SDS011;1956;53.482;10.238;2022-10-31T11:05:57;69.97;;;32.33;;
3881;SDS011;1956;53.482;10.238;2022-10-31T11:11:10;70.30;;;33.07;;
3881;SDS011;1956;53.482;10.238;2022-10-31T11:16:30;72.00;;;31.37;;
3881;SDS011;1956;53.482;10.238;2022-10-31T11:21:33;54.10;;;29.70;;
3881;SDS011;1956;53.482;10.238;2022-10-31T11:26:34;64.47;;;31.37;;
3881;SDS011;1956;53.482;10.238;2022-10-31T11:31:37;49.97;;;26.53;;
3881;SDS011;1956;53.482;10.238;2022-10-31T11:36:38;57.70;;;28.20;;
3881;SDS011;1956;53.482;10.238;2022-10-31T11:41:42;53.20;;;27.47;;
3881;SDS011;1956;53.482;10.238;2022-10-31T11:46:50;52.23;;;25.07;;
3881;SDS011;1956;53.482;10.238;2022-10-31T11:51:52;49.67;;;25.43;;
3881;SDS011;1956;53.482;10.238;2022-10-31T11:56:54;46.70;;;25.23;;
3881;SDS011;1956;53.482;10.238;2022-10-31T12:01:56;43.47;;;23.93;;
3881;SDS011;1956;53.482;10.238;2022-10-31T12:06:58;47.73;;;24.70;;
3881;SDS011;1956;53.482;10.238;2022-10-31T12:17:39;36.57;;;22.33;;
3881;SDS011;1956;53.482;10.238;2022-10-31T12:35:14;31.43;;;19.27;;
3881;SDS011;1956;53.482;10.238;2022-10-31T12:40:35;35.60;;;20.00;;
3881;SDS011;1956;53.482;10.238;2022-10-31T12:45:55;26.90;;;15.90;;
3881;SDS011;1956;53.482;10.238;2022-10-31T12:57:01;28.00;;;15.33;;
3881;SDS011;1956;53.482;10.238;2022-10-31T13:02:22;28.37;;;15.83;;
3881;SDS011;1956;53.482;10.238;2022-10-31T13:07:30;27.80;;;16.63;;
3881;SDS011;1956;53.482;10.238;2022-10-31T13:12:36;31.27;;;16.37;;
3881;SDS011;1956;53.482;10.238;2022-10-31T13:17:39;23.30;;;13.63;;
3881;SDS011;1956;53.482;10.238;2022-10-31T13:22:44;27.93;;;15.63;;
3881;SDS011;1956;53.482;10.238;2022-10-31T13:27:57;25.70;;;16.47;;
3881;SDS011;1956;53.482;10.238;2022-10-31T13:33:01;25.73;;;15.10;;
3881;SDS011;1956;53.482;10.238;2022-10-31T13:38:20;23.70;;;15.57;;
3881;SDS011;1956;53.482;10.238;2022-10-31T13:44:10;25.03;;;16.80;;
3881;SDS011;1956;53.482;10.238;2022-10-31T13:49:00;31.03;;;17.43;;
3881;SDS011;1956;53.482;10.238;2022-10-31T13:54:01;29.27;;;16.67;;
3881;SDS011;1956;53.482;10.238;2022-10-31T14:04:27;29.57;;;17.30;;
3881;SDS011;1956;53.482;10.238;2022-10-31T14:09:34;37.73;;;19.27;;
3881;SDS011;1956;53.482;10.238;2022-10-31T14:14:42;26.90;;;17.77;;
3881;SDS011;1956;53.482;10.238;2022-10-31T14:20:02;30.07;;;15.80;;
3881;SDS011;1956;53.482;10.238;2022-10-31T14:25:30;27.43;;;17.80;;
3881;SDS011;1956;53.482;10.238;2022-10-31T14:30:33;26.27;;;16.77;;
3881;SDS011;1956;53.482;10.238;2022-10-31T14:41:15;27.43;;;18.10;;
3881;SDS011;1956;53.482;10.238;2022-10-31T14:47:38;27.90;;;16.30;;
3881;SDS011;1956;53.482;10.238;2022-10-31T14:52:23;25.20;;;15.33;;
3881;SDS011;1956;53.482;10.238;2022-10-31T14:57:33;30.33;;;15.23;;
3881;SDS011;1956;53.482;10.238;2022-10-31T15:02:40;31.40;;;17.43;;
3881;SDS011;1956;53.482;10.238;2022-10-31T15:07:56;24.33;;;14.60;;
3881;SDS011;1956;53.482;10.238;2022-10-31T15:13:10;29.03;;;15.50;;
3881;SDS011;1956;53.482;10.238;2022-10-31T15:18:17;30.10;;;14.77;;
3881;SDS011;1956;53.482;10.238;2022-10-31T15:23:23;33.43;;;15.90;;
3881;SDS011;1956;53.482;10.238;2022-10-31T15:28:26;33.33;;;14.93;;
3881;SDS011;1956;53.482;10.238;2022-10-31T15:33:28;26.57;;;13.30;;
3881;SDS011;1956;53.482;10.238;2022-10-31T15:38:31;27.97;;;13.33;;
3881;SDS011;1956;53.482;10.238;2022-10-31T15:43:34;24.33;;;13.00;;
3881;SDS011;1956;53.482;10.238;2022-10-31T15:48:36;34.87;;;14.90;;
3881;SDS011;1956;53.482;10.238;2022-10-31T15:53:51;40.97;;;16.53;;
3881;SDS011;1956;53.482;10.238;2022-10-31T15:58:52;37.80;;;16.80;;
3881;SDS011;1956;53.482;10.238;2022-10-31T16:09:20;36.40;;;18.47;;
3881;SDS011;1956;53.482;10.238;2022-10-31T16:14:22;40.17;;;17.60;;
3881;SDS011;1956;53.482;10.238;2022-10-31T16:19:34;36.90;;;17.00;;
3881;SDS011;1956;53.482;10.238;2022-10-31T16:24:56;39.17;;;17.90;;
3881;SDS011;1956;53.482;10.238;2022-10-31T16:30:00;43.13;;;19.83;;
3881;SDS011;1956;53.482;10.238;2022-10-31T16:40:38;41.87;;;21.13;;
3881;SDS011;1956;53.482;10.238;2022-10-31T16:45:42;35.67;;;19.63;;
3881;SDS011;1956;53.482;10.238;2022-10-31T16:50:44;49.50;;;21.43;;
3881;SDS011;1956;53.482;10.238;2022-10-31T16:55:48;45.43;;;20.03;;
3881;SDS011;1956;53.482;10.238;2022-10-31T17:00:59;43.23;;;20.23;;
3881;SDS011;1956;53.482;10.238;2022-10-31T17:06:01;48.17;;;21.03;;
3881;SDS011;1956;53.482;10.238;2022-10-31T17:11:02;46.77;;;22.17;;
3881;SDS011;1956;53.482;10.238;2022-10-31T17:16:02;41.87;;;19.73;;
3881;SDS011;1956;53.482;10.238;2022-10-31T17:21:03;40.03;;;20.77;;
3881;SDS011;1956;53.482;10.238;2022-10-31T17:26:05;44.67;;;21.20;;
3881;SDS011;1956;53.482;10.238;2022-10-31T17:31:25;51.47;;;22.40;;
3881;SDS011;1956;53.482;10.238;2022-10-31T17:36:29;52.77;;;23.20;;
3881;SDS011;1956;53.482;10.238;2022-10-31T17:41:32;55.17;;;23.30;;
3881;SDS011;1956;53.482;10.238;2022-10-31T17:46:32;54.53;;;25.37;;
3881;SDS011;1956;53.482;10.238;2022-10-31T17:51:33;58.40;;;24.40;;
3881;SDS011;1956;53.482;10.238;2022-10-31T17:56:33;61.37;;;25.57;;
3881;SDS011;1956;53.482;10.238;2022-10-31T18:01:34;59.33;;;25.40;;
3881;SDS011;1956;53.482;10.238;2022-10-31T18:06:34;55.70;;;24.00;;
3881;SDS011;1956;53.482;10.238;2022-10-31T18:11:35;54.00;;;24.43;;
3881;SDS011;1956;53.482;10.238;2022-10-31T18:16:35;58.73;;;24.10;;
3881;SDS011;1956;53.482;10.238;2022-10-31T18:21:36;45.77;;;22.67;;
3881;SDS011;1956;53.482;10.238;2022-10-31T18:26:36;53.30;;;22.57;;
3881;SDS011;1956;53.482;10.238;2022-10-31T18:31:37;54.90;;;23.60;;
3881;SDS011;1956;53.482;10.238;2022-10-31T18:36:37;48.87;;;22.77;;
3881;SDS011;1956;53.482;10.238;2022-10-31T18:41:38;57.93;;;25.63;;
3881;SDS011;1956;53.482;10.238;2022-10-31T18:46:39;56.17;;;25.03;;
3881;SDS011;1956;53.482;10.238;2022-10-31T18:51:39;49.20;;;24.67;;
3881;SDS011;1956;53.482;10.238;2022-10-31T18:56:39;51.43;;;24.03;;
3881;SDS011;1956;53.482;10.238;2022-10-31T19:01:40;46.23;;;22.57;;
3881;SDS011;1956;53.482;10.238;2022-10-31T19:06:40;56.13;;;23.87;;
3881;SDS011;1956;53.482;10.238;2022-10-31T19:11:41;52.47;;;25.10;;
3881;SDS011;1956;53.482;10.238;2022-10-31T19:16:41;52.80;;;23.57;;
3881;SDS011;1956;53.482;10.238;2022-10-31T19:21:41;52.27;;;23.23;;
3881;SDS011;1956;53.482;10.238;2022-10-31T19:26:42;56.63;;;25.10;;
3881;SDS011;1956;53.482;10.238;2022-10-31T19:31:42;54.93;;;23.90;;
3881;SDS011;1956;53.482;10.238;2022-10-31T19:36:43;75.17;;;28.70;;
3881;SDS011;1956;53.482;10.238;2022-10-31T19:41:43;74.73;;;32.93;;
3881;SDS011;1956;53.482;10.238;2022-10-31T19:46:44;76.03;;;30.13;;
3881;SDS011;1956;53.482;10.238;2022-10-31T19:51:44;71.37;;;30.70;;
3881;SDS011;1956;53.482;10.238;2022-10-31T19:56:44;75.43;;;30.40;;
3881;SDS011;1956;53.482;10.238;2022-10-31T20:01:45;74.33;;;31.70;;
3881;SDS011;1956;53.482;10.238;2022-10-31T20:06:45;80.83;;;31.90;;
3881;SDS011;1956;53.482;10.238;2022-10-31T20:11:45;78.17;;;31.13;;
3881;SDS011;1956;53.482;10.238;2022-10-31T20:16:46;75.30;;;31.10;;
3881;SDS011;1956;53.482;10.238;2022-10-31T20:21:46;74.83;;;28.87;;
3881;SDS011;1956;53.482;10.238;2022-10-31T20:26:47;77.50;;;30.73;;
3881;SDS011;1956;53.482;10.238;2022-10-31T20:31:47;83.30;;;30.20;;
3881;SDS011;1956;53.482;10.238;2022-10-31T20:36:47;73.80;;;31.20;;
3881;SDS011;1956;53.482;10.238;2022-10-31T20:41:48;83.90;;;32.80;;
3881;SDS011;1956;53.482;10.238;2022-10-31T20:46:48;89.90;;;33.97;;
3881;SDS011;1956;53.482;10.238;2022-10-31T20:51:49;77.47;;;31.30;;
3881;SDS011;1956;53.482;10.238;2022-10-31T20:56:49;83.47;;;33.37;;
3881;SDS011;1956;53.482;10.238;2022-10-31T21:01:49;94.93;;;32.53;;
3881;SDS011;1956;53.482;10.238;2022-10-31T21:06:50;67.07;;;30.13;;
3881;SDS011;1956;53.482;10.238;2022-10-31T21:11:50;88.73;;;32.10;;
3881;SDS011;1956;53.482;10.238;2022-10-31T21:16:50;86.63;;;33.80;;
3881;SDS011;1956;53.482;10.238;2022-10-31T21:21:51;74.07;;;32.10;;
3881;SDS011;1956;53.482;10.238;2022-10-31T21:26:51;79.80;;;33.90;;
3881;SDS011;1956;53.482;10.238;2022-10-31T21:31:52;80.03;;;33.07;;
3881;SDS011;1956;53.482;10.238;2022-10-31T21:36:52;95.57;;;35.50;;
3881;SDS011;1956;53.482;10.238;2022-10-31T21:41:52;68.47;;;31.43;;
3881;SDS011;1956;53.482;10.238;2022-10-31T21:46:53;82.73;;;31.00;;
3881;SDS011;1956;53.482;10.238;2022-10-31T21:51:53;84.33;;;33.30;;
3881;SDS011;1956;53.482;10.238;2022-10-31T21:56:54;90.73;;;35.23;;
3881;SDS011;1956;53.482;10.238;2022-10-31T22:01:55;89.97;;;34.30;;
3881;SDS011;1956;53.482;10.238;2022-10-31T22:06:58;82.70;;;34.03;;
3881;SDS011;1956;53.482;10.238;2022-10-31T22:11:58;79.43;;;33.50;;
3881;SDS011;1956;53.482;10.238;2022-10-31T22:17:00;71.43;;;33.97;;
3881;SDS011;1956;53.482;10.238;2022-10-31T22:22:01;94.37;;;33.27;;
3881;SDS011;1956;53.482;10.238;2022-10-31T22:27:02;78.77;;;34.40;;
3881;SDS011;1956;53.482;10.238;2022-10-31T22:32:02;73.83;;;31.40;;
3881;SDS011;1956;53.482;10.238;2022-10-31T22:37:02;76.83;;;31.83;;
3881;SDS011;1956;53.482;10.238;2022-10-31T22:42:03;82.30;;;30.90;;
3881;SDS011;1956;53.482;10.238;2022-10-31T22:47:03;72.47;;;30.80;;
3881;SDS011;1956;53.482;10.238;2022-10-31T22:52:04;66.30;;;30.27;;
3881;SDS011;1956;53.482;10.238;2022-10-31T22:57:04;65.87;;;30.37;;
3881;SDS011;1956;53.482;10.238;2022-10-31T23:02:04;72.77;;;32.77;;
3881;SDS011;1956;53.482;10.238;2022-10-31T23:07:05;66.10;;;31.20;;
3881;SDS011;1956;53.482;10.238;2022-10-31T23:12:06;62.50;;;29.00;;
3881;SDS011;1956;53.482;10.238;2022-10-31T23:17:26;62.07;;;27.73;;
3881;SDS011;1956;53.482;10.238;2022-10-31T23:22:26;60.27;;;29.13;;
3881;SDS011;1956;53.482;10.238;2022-10-31T23:27:26;58.10;;;27.93;;
3881;SDS011;1956;53.482;10.238;2022-10-31T23:37:37;57.00;;;25.43;;
3881;SDS011;1956;53.482;10.238;2022-10-31T23:42:37;63.83;;;27.47;;
3881;SDS011;1956;53.482;10.238;2022-10-31T23:47:38;60.00;;;28.63;;
3881;SDS011;1956;53.482;10.238;2022-10-31T23:52:38;67.77;;;28.67;;
3881;SDS011;1956;53.482;10.238;2022-10-31T23:57:38;63.23;;;27.60;;
